sensor_id;sensor_type;location;lat;lon;timestamp;P1;durP1;ratioP1;P2;durP2;ratioP2
40256;SDS011;25977;45.462;9.210;2023-05-27T00:02:16;12.02;;;7.07;;
40256;SDS011;25977;45.462;9.210;2023-05-27T00:04:41;16.25;;;7.32;;
40256;SDS011;25977;45.462;9.210;2023-05-27T00:07:07;14.13;;;7.82;;
40256;SDS011;25977;45.462;9.210;2023-05-27T00:09:33;11.20;;;7.30;;
40256;SDS011;25977;45.462;9.210;2023-05-27T00:11:58;16.40;;;7.22;;
40256;SDS011;25977;45.462;9.210;2023-05-27T00:14:25;8.52;;;6.22;;
40256;SDS011;25977;45.462;9.210;2023-05-27T00:16:50;15.70;;;7.55;;
40256;SDS011;25977;45.462;9.210;2023-05-27T00:19:16;10.00;;;6.57;;
40256;SDS011;25977;45.462;9.210;2023-05-27T00:21:42;11.63;;;7.40;;
40256;SDS011;25977;45.462;9.210;2023-05-27T00:24:08;14.95;;;7.20;;
40256;SDS011;25977;45.462;9.210;2023-05-27T00:26:34;8.57;;;7.32;;
40256;SDS011;25977;45.462;9.210;2023-05-27T00:29:00;17.38;;;8.13;;
40256;SDS011;25977;45.462;9.210;2023-05-27T00:31:26;12.80;;;7.07;;
40256;SDS011;25977;45.462;9.210;2023-05-27T00:33:52;8.85;;;6.82;;
40256;SDS011;25977;45.462;9.210;2023-05-27T00:36:18;9.85;;;7.80;;
40256;SDS011;25977;45.462;9.210;2023-05-27T00:38:43;9.73;;;6.95;;
40256;SDS011;25977;45.462;9.210;2023-05-27T00:41:10;11.93;;;7.25;;
40256;SDS011;25977;45.462;9.210;2023-05-27T00:43:37;16.90;;;7.38;;
40256;SDS011;25977;45.462;9.210;2023-05-27T00:46:03;13.18;;;7.20;;
40256;SDS011;25977;45.462;9.210;2023-05-27T00:48:28;12.82;;;7.45;;
40256;SDS011;25977;45.462;9.210;2023-05-27T00:50:54;12.15;;;6.57;;
40256;SDS011;25977;45.462;9.210;2023-05-27T00:53:20;14.07;;;7.60;;
40256;SDS011;25977;45.462;9.210;2023-05-27T00:55:48;12.88;;;8.15;;
40256;SDS011;25977;45.462;9.210;2023-05-27T00:58:18;12.30;;;7.78;;
40256;SDS011;25977;45.462;9.210;2023-05-27T01:00:46;10.20;;;7.28;;
40256;SDS011;25977;45.462;9.210;2023-05-27T01:03:13;14.27;;;7.60;;
40256;SDS011;25977;45.462;9.210;2023-05-27T01:05:40;16.63;;;7.65;;
40256;SDS011;25977;45.462;9.210;2023-05-27T01:10:52;10.75;;;6.65;;
40256;SDS011;25977;45.462;9.210;2023-05-27T01:13:33;13.27;;;7.78;;
40256;SDS011;25977;45.462;9.210;2023-05-27T01:16:05;16.55;;;7.85;;
40256;SDS011;25977;45.462;9.210;2023-05-27T01:18:36;7.55;;;6.10;;
40256;SDS011;25977;45.462;9.210;2023-05-27T01:21:06;10.07;;;6.30;;
40256;SDS011;25977;45.462;9.210;2023-05-27T01:23:35;13.43;;;6.88;;
40256;SDS011;25977;45.462;9.210;2023-05-27T01:26:04;13.43;;;7.45;;
40256;SDS011;25977;45.462;9.210;2023-05-27T01:28:30;11.13;;;6.63;;
40256;SDS011;25977;45.462;9.210;2023-05-27T01:30:58;12.57;;;7.78;;
40256;SDS011;25977;45.462;9.210;2023-05-27T01:33:55;9.00;;;7.93;;
40256;SDS011;25977;45.462;9.210;2023-05-27T01:36:26;9.65;;;7.35;;
40256;SDS011;25977;45.462;9.210;2023-05-27T01:38:56;12.57;;;7.07;;
40256;SDS011;25977;45.462;9.210;2023-05-27T01:41:24;8.30;;;6.50;;
40256;SDS011;25977;45.462;9.210;2023-05-27T01:43:51;7.75;;;6.93;;
40256;SDS011;25977;45.462;9.210;2023-05-27T01:46:18;13.27;;;8.05;;
40256;SDS011;25977;45.462;9.210;2023-05-27T01:48:43;10.98;;;7.50;;
40256;SDS011;25977;45.462;9.210;2023-05-27T01:51:09;15.80;;;8.82;;
40256;SDS011;25977;45.462;9.210;2023-05-27T01:53:39;15.60;;;8.27;;
40256;SDS011;25977;45.462;9.210;2023-05-27T01:56:04;14.82;;;8.75;;
40256;SDS011;25977;45.462;9.210;2023-05-27T01:58:30;11.80;;;7.80;;
40256;SDS011;25977;45.462;9.210;2023-05-27T02:00:56;10.38;;;7.47;;
40256;SDS011;25977;45.462;9.210;2023-05-27T02:03:21;8.13;;;7.32;;
40256;SDS011;25977;45.462;9.210;2023-05-27T02:05:47;9.35;;;7.20;;
40256;SDS011;25977;45.462;9.210;2023-05-27T02:08:13;10.73;;;7.50;;
40256;SDS011;25977;45.462;9.210;2023-05-27T02:10:39;7.93;;;7.10;;
40256;SDS011;25977;45.462;9.210;2023-05-27T02:13:05;12.40;;;7.50;;
40256;SDS011;25977;45.462;9.210;2023-05-27T02:15:32;8.77;;;7.22;;
40256;SDS011;25977;45.462;9.210;2023-05-27T02:17:57;8.80;;;6.82;;
40256;SDS011;25977;45.462;9.210;2023-05-27T02:20:23;11.43;;;7.38;;
40256;SDS011;25977;45.462;9.210;2023-05-27T02:22:50;9.38;;;6.05;;
40256;SDS011;25977;45.462;9.210;2023-05-27T02:25:16;7.43;;;6.53;;
40256;SDS011;25977;45.462;9.210;2023-05-27T02:27:42;7.53;;;5.90;;
40256;SDS011;25977;45.462;9.210;2023-05-27T02:30:12;10.77;;;6.32;;
40256;SDS011;25977;45.462;9.210;2023-05-27T02:32:39;8.73;;;6.03;;
40256;SDS011;25977;45.462;9.210;2023-05-27T02:35:05;8.43;;;7.15;;
40256;SDS011;25977;45.462;9.210;2023-05-27T02:37:32;10.45;;;7.18;;
40256;SDS011;25977;45.462;9.210;2023-05-27T02:39:58;8.25;;;6.72;;
40256;SDS011;25977;45.462;9.210;2023-05-27T02:42:24;11.10;;;6.18;;
40256;SDS011;25977;45.462;9.210;2023-05-27T02:44:49;10.23;;;7.55;;
40256;SDS011;25977;45.462;9.210;2023-05-27T02:47:15;8.32;;;5.95;;
40256;SDS011;25977;45.462;9.210;2023-05-27T02:49:41;6.18;;;5.60;;
40256;SDS011;25977;45.462;9.210;2023-05-27T02:52:06;8.50;;;5.70;;
40256;SDS011;25977;45.462;9.210;2023-05-27T02:54:32;6.90;;;6.05;;
40256;SDS011;25977;45.462;9.210;2023-05-27T02:56:58;8.90;;;5.28;;
40256;SDS011;25977;45.462;9.210;2023-05-27T02:59:23;7.85;;;6.18;;
40256;SDS011;25977;45.462;9.210;2023-05-27T03:01:49;5.95;;;5.40;;
40256;SDS011;25977;45.462;9.210;2023-05-27T03:04:18;8.05;;;5.07;;
40256;SDS011;25977;45.462;9.210;2023-05-27T03:06:46;8.27;;;5.47;;
40256;SDS011;25977;45.462;9.210;2023-05-27T03:09:12;5.97;;;5.20;;
40256;SDS011;25977;45.462;9.210;2023-05-27T03:11:39;5.93;;;4.95;;
40256;SDS011;25977;45.462;9.210;2023-05-27T03:14:05;5.35;;;4.38;;
40256;SDS011;25977;45.462;9.210;2023-05-27T03:16:31;6.07;;;4.63;;
40256;SDS011;25977;45.462;9.210;2023-05-27T03:18:57;5.32;;;4.57;;
40256;SDS011;25977;45.462;9.210;2023-05-27T03:21:22;6.47;;;4.78;;
40256;SDS011;25977;45.462;9.210;2023-05-27T03:23:48;9.95;;;5.30;;
40256;SDS011;25977;45.462;9.210;2023-05-27T03:26:14;7.53;;;4.82;;
40256;SDS011;25977;45.462;9.210;2023-05-27T03:28:39;6.07;;;5.45;;
40256;SDS011;25977;45.462;9.210;2023-05-27T03:31:06;6.30;;;5.60;;
40256;SDS011;25977;45.462;9.210;2023-05-27T03:33:42;7.20;;;6.50;;
40256;SDS011;25977;45.462;9.210;2023-05-27T03:36:08;7.28;;;6.30;;
40256;SDS011;25977;45.462;9.210;2023-05-27T03:38:34;8.00;;;6.03;;
40256;SDS011;25977;45.462;9.210;2023-05-27T03:40:59;7.68;;;5.85;;
40256;SDS011;25977;45.462;9.210;2023-05-27T03:43:26;9.88;;;6.10;;
40256;SDS011;25977;45.462;9.210;2023-05-27T03:45:52;14.82;;;6.70;;
40256;SDS011;25977;45.462;9.210;2023-05-27T03:48:17;9.85;;;6.22;;
40256;SDS011;25977;45.462;9.210;2023-05-27T03:50:43;7.20;;;6.18;;
40256;SDS011;25977;45.462;9.210;2023-05-27T03:53:09;10.30;;;6.32;;
40256;SDS011;25977;45.462;9.210;2023-05-27T03:55:35;11.52;;;6.20;;
40256;SDS011;25977;45.462;9.210;2023-05-27T03:58:00;10.05;;;6.05;;
40256;SDS011;25977;45.462;9.210;2023-05-27T04:00:26;9.05;;;6.40;;
40256;SDS011;25977;45.462;9.210;2023-05-27T04:02:53;7.07;;;5.30;;
40256;SDS011;25977;45.462;9.210;2023-05-27T04:05:21;7.07;;;5.40;;
40256;SDS011;25977;45.462;9.210;2023-05-27T04:07:47;7.53;;;6.00;;
40256;SDS011;25977;45.462;9.210;2023-05-27T04:10:12;5.35;;;4.88;;
40256;SDS011;25977;45.462;9.210;2023-05-27T04:12:39;8.05;;;4.63;;
40256;SDS011;25977;45.462;9.210;2023-05-27T04:15:08;5.22;;;4.72;;
40256;SDS011;25977;45.462;9.210;2023-05-27T04:17:34;4.80;;;4.20;;
40256;SDS011;25977;45.462;9.210;2023-05-27T04:20:00;7.05;;;3.85;;
40256;SDS011;25977;45.462;9.210;2023-05-27T04:22:26;4.75;;;4.35;;
40256;SDS011;25977;45.462;9.210;2023-05-27T04:24:52;6.68;;;4.43;;
40256;SDS011;25977;45.462;9.210;2023-05-27T04:27:18;6.93;;;4.93;;
40256;SDS011;25977;45.462;9.210;2023-05-27T04:29:44;5.10;;;3.75;;
40256;SDS011;25977;45.462;9.210;2023-05-27T04:32:11;7.28;;;3.30;;
40256;SDS011;25977;45.462;9.210;2023-05-27T04:34:38;3.67;;;3.28;;
40256;SDS011;25977;45.462;9.210;2023-05-27T04:37:07;4.68;;;3.10;;
40256;SDS011;25977;45.462;9.210;2023-05-27T04:39:36;3.45;;;2.58;;
40256;SDS011;25977;45.462;9.210;2023-05-27T04:42:02;4.10;;;3.00;;
40256;SDS011;25977;45.462;9.210;2023-05-27T04:44:31;3.40;;;3.10;;
40256;SDS011;25977;45.462;9.210;2023-05-27T04:46:59;3.40;;;2.40;;
40256;SDS011;25977;45.462;9.210;2023-05-27T04:49:25;2.42;;;2.22;;
40256;SDS011;25977;45.462;9.210;2023-05-27T04:51:52;3.10;;;2.15;;
40256;SDS011;25977;45.462;9.210;2023-05-27T04:54:20;8.38;;;2.63;;
40256;SDS011;25977;45.462;9.210;2023-05-27T04:56:47;1.67;;;1.58;;
40256;SDS011;25977;45.462;9.210;2023-05-27T05:01:46;7.32;;;2.13;;
40256;SDS011;25977;45.462;9.210;2023-05-27T05:04:37;3.17;;;1.60;;
40256;SDS011;25977;45.462;9.210;2023-05-27T05:07:04;5.20;;;1.23;;
40256;SDS011;25977;45.462;9.210;2023-05-27T05:09:31;1.48;;;1.38;;
40256;SDS011;25977;45.462;9.210;2023-05-27T05:12:04;1.45;;;1.45;;
40256;SDS011;25977;45.462;9.210;2023-05-27T05:14:35;1.98;;;1.88;;
40256;SDS011;25977;45.462;9.210;2023-05-27T05:17:01;2.97;;;1.70;;
40256;SDS011;25977;45.462;9.210;2023-05-27T05:19:27;1.50;;;1.40;;
40256;SDS011;25977;45.462;9.210;2023-05-27T05:21:54;1.58;;;1.48;;
40256;SDS011;25977;45.462;9.210;2023-05-27T05:24:19;3.60;;;1.92;;
40256;SDS011;25977;45.462;9.210;2023-05-27T05:26:45;1.98;;;1.80;;
40256;SDS011;25977;45.462;9.210;2023-05-27T05:29:11;1.88;;;1.77;;
40256;SDS011;25977;45.462;9.210;2023-05-27T05:31:37;4.15;;;2.47;;
40256;SDS011;25977;45.462;9.210;2023-05-27T05:34:02;2.20;;;2.10;;
40256;SDS011;25977;45.462;9.210;2023-05-27T05:36:32;4.93;;;2.20;;
40256;SDS011;25977;45.462;9.210;2023-05-27T05:39:02;2.50;;;2.30;;
40256;SDS011;25977;45.462;9.210;2023-05-27T05:41:29;3.03;;;2.22;;
40256;SDS011;25977;45.462;9.210;2023-05-27T05:43:55;3.35;;;1.73;;
40256;SDS011;25977;45.462;9.210;2023-05-27T05:46:21;2.67;;;2.30;;
40256;SDS011;25977;45.462;9.210;2023-05-27T05:48:49;3.00;;;2.72;;
40256;SDS011;25977;45.462;9.210;2023-05-27T05:51:21;2.63;;;2.42;;
40256;SDS011;25977;45.462;9.210;2023-05-27T05:53:52;2.60;;;2.40;;
40256;SDS011;25977;45.462;9.210;2023-05-27T05:56:18;2.65;;;2.00;;
40256;SDS011;25977;45.462;9.210;2023-05-27T05:58:45;2.10;;;1.90;;
40256;SDS011;25977;45.462;9.210;2023-05-27T06:01:11;2.40;;;2.20;;
40256;SDS011;25977;45.462;9.210;2023-05-27T06:03:40;3.90;;;2.40;;
40256;SDS011;25977;45.462;9.210;2023-05-27T06:06:08;2.00;;;1.90;;
40256;SDS011;25977;45.462;9.210;2023-05-27T06:08:45;4.80;;;2.42;;
40256;SDS011;25977;45.462;9.210;2023-05-27T06:11:15;2.47;;;2.33;;
40256;SDS011;25977;45.462;9.210;2023-05-27T06:13:43;3.90;;;2.60;;
40256;SDS011;25977;45.462;9.210;2023-05-27T06:16:11;3.35;;;2.47;;
40256;SDS011;25977;45.462;9.210;2023-05-27T06:18:37;2.67;;;2.47;;
40256;SDS011;25977;45.462;9.210;2023-05-27T06:21:02;4.47;;;2.60;;
40256;SDS011;25977;45.462;9.210;2023-05-27T06:23:40;5.10;;;3.38;;
40256;SDS011;25977;45.462;9.210;2023-05-27T06:26:14;3.03;;;2.83;;
40256;SDS011;25977;45.462;9.210;2023-05-27T06:28:45;3.30;;;3.10;;
40256;SDS011;25977;45.462;9.210;2023-05-27T06:31:13;3.80;;;3.28;;
40256;SDS011;25977;45.462;9.210;2023-05-27T06:33:40;3.60;;;3.28;;
40256;SDS011;25977;45.462;9.210;2023-05-27T06:36:07;5.13;;;2.97;;
40256;SDS011;25977;45.462;9.210;2023-05-27T06:38:33;3.55;;;3.20;;
40256;SDS011;25977;45.462;9.210;2023-05-27T06:41:02;5.82;;;3.05;;
40256;SDS011;25977;45.462;9.210;2023-05-27T06:43:28;4.15;;;3.15;;
40256;SDS011;25977;45.462;9.210;2023-05-27T06:46:17;5.70;;;4.40;;
40256;SDS011;25977;45.462;9.210;2023-05-27T06:49:03;3.35;;;3.05;;
40256;SDS011;25977;45.462;9.210;2023-05-27T06:51:29;5.53;;;3.33;;
40256;SDS011;25977;45.462;9.210;2023-05-27T06:53:58;4.00;;;3.58;;
40256;SDS011;25977;45.462;9.210;2023-05-27T06:56:32;4.25;;;3.20;;
40256;SDS011;25977;45.462;9.210;2023-05-27T06:59:33;5.53;;;3.38;;
40256;SDS011;25977;45.462;9.210;2023-05-27T07:01:59;3.53;;;3.22;;
40256;SDS011;25977;45.462;9.210;2023-05-27T07:04:25;4.65;;;3.17;;
40256;SDS011;25977;45.462;9.210;2023-05-27T07:06:53;4.43;;;3.75;;
40256;SDS011;25977;45.462;9.210;2023-05-27T07:09:19;4.50;;;4.10;;
40256;SDS011;25977;45.462;9.210;2023-05-27T07:11:46;4.72;;;3.35;;
40256;SDS011;25977;45.462;9.210;2023-05-27T07:14:32;4.70;;;3.95;;
40256;SDS011;25977;45.462;9.210;2023-05-27T07:16:58;4.70;;;3.40;;
40256;SDS011;25977;45.462;9.210;2023-05-27T07:19:23;8.10;;;4.40;;
40256;SDS011;25977;45.462;9.210;2023-05-27T07:21:54;5.40;;;4.75;;
40256;SDS011;25977;45.462;9.210;2023-05-27T07:24:22;3.92;;;3.63;;
40256;SDS011;25977;45.462;9.210;2023-05-27T07:26:49;4.93;;;3.47;;
40256;SDS011;25977;45.462;9.210;2023-05-27T07:29:15;4.60;;;4.15;;
40256;SDS011;25977;45.462;9.210;2023-05-27T07:32:01;4.13;;;3.85;;
40256;SDS011;25977;45.462;9.210;2023-05-27T07:34:31;4.55;;;4.10;;
40256;SDS011;25977;45.462;9.210;2023-05-27T07:36:57;5.35;;;4.05;;
40256;SDS011;25977;45.462;9.210;2023-05-27T07:39:23;5.25;;;4.30;;
40256;SDS011;25977;45.462;9.210;2023-05-27T07:41:49;6.18;;;4.25;;
40256;SDS011;25977;45.462;9.210;2023-05-27T07:44:14;4.70;;;3.53;;
40256;SDS011;25977;45.462;9.210;2023-05-27T07:46:40;7.00;;;4.13;;
40256;SDS011;25977;45.462;9.210;2023-05-27T07:49:07;4.93;;;3.75;;
40256;SDS011;25977;45.462;9.210;2023-05-27T07:51:38;5.43;;;4.32;;
40256;SDS011;25977;45.462;9.210;2023-05-27T07:54:04;6.95;;;4.63;;
40256;SDS011;25977;45.462;9.210;2023-05-27T07:56:30;5.88;;;4.72;;
40256;SDS011;25977;45.462;9.210;2023-05-27T07:58:56;6.32;;;4.43;;
40256;SDS011;25977;45.462;9.210;2023-05-27T08:01:22;4.43;;;4.03;;
40256;SDS011;25977;45.462;9.210;2023-05-27T08:03:52;6.10;;;4.00;;
40256;SDS011;25977;45.462;9.210;2023-05-27T08:06:37;5.00;;;4.40;;
40256;SDS011;25977;45.462;9.210;2023-05-27T08:09:26;5.03;;;4.38;;
40256;SDS011;25977;45.462;9.210;2023-05-27T08:12:01;5.15;;;4.57;;
40256;SDS011;25977;45.462;9.210;2023-05-27T08:14:39;4.80;;;4.30;;
40256;SDS011;25977;45.462;9.210;2023-05-27T08:17:26;6.15;;;4.25;;
40256;SDS011;25977;45.462;9.210;2023-05-27T08:20:14;5.88;;;4.78;;
40256;SDS011;25977;45.462;9.210;2023-05-27T08:22:48;4.55;;;4.15;;
40256;SDS011;25977;45.462;9.210;2023-05-27T08:25:27;8.45;;;4.72;;
40256;SDS011;25977;45.462;9.210;2023-05-27T08:28:06;4.80;;;4.28;;
40256;SDS011;25977;45.462;9.210;2023-05-27T08:30:45;6.75;;;4.60;;
40256;SDS011;25977;45.462;9.210;2023-05-27T08:33:24;4.53;;;4.13;;
40256;SDS011;25977;45.462;9.210;2023-05-27T08:35:50;5.25;;;4.75;;
40256;SDS011;25977;45.462;9.210;2023-05-27T08:38:16;5.97;;;4.93;;
40256;SDS011;25977;45.462;9.210;2023-05-27T08:40:42;6.63;;;4.85;;
40256;SDS011;25977;45.462;9.210;2023-05-27T08:43:09;5.25;;;4.75;;
40256;SDS011;25977;45.462;9.210;2023-05-27T08:45:39;9.18;;;4.20;;
40256;SDS011;25977;45.462;9.210;2023-05-27T08:48:09;7.35;;;5.70;;
40256;SDS011;25977;45.462;9.210;2023-05-27T08:50:37;6.55;;;5.03;;
40256;SDS011;25977;45.462;9.210;2023-05-27T08:53:03;5.25;;;4.75;;
40256;SDS011;25977;45.462;9.210;2023-05-27T08:55:30;5.20;;;4.80;;
40256;SDS011;25977;45.462;9.210;2023-05-27T08:57:57;9.10;;;5.10;;
40256;SDS011;25977;45.462;9.210;2023-05-27T09:00:27;6.43;;;4.53;;
40256;SDS011;25977;45.462;9.210;2023-05-27T09:02:57;7.43;;;5.20;;
40256;SDS011;25977;45.462;9.210;2023-05-27T09:07:54;6.15;;;4.43;;
40256;SDS011;25977;45.462;9.210;2023-05-27T09:10:20;5.32;;;4.15;;
40256;SDS011;25977;45.462;9.210;2023-05-27T09:12:46;6.10;;;5.53;;
40256;SDS011;25977;45.462;9.210;2023-05-27T09:15:12;7.68;;;4.97;;
40256;SDS011;25977;45.462;9.210;2023-05-27T09:17:41;7.85;;;5.82;;
40256;SDS011;25977;45.462;9.210;2023-05-27T09:20:09;5.50;;;5.00;;
40256;SDS011;25977;45.462;9.210;2023-05-27T09:22:36;6.38;;;5.47;;
40256;SDS011;25977;45.462;9.210;2023-05-27T09:25:02;6.25;;;5.53;;
40256;SDS011;25977;45.462;9.210;2023-05-27T09:27:28;9.30;;;5.88;;
40256;SDS011;25977;45.462;9.210;2023-05-27T09:29:55;6.38;;;5.43;;
40256;SDS011;25977;45.462;9.210;2023-05-27T09:32:31;7.53;;;6.20;;
40256;SDS011;25977;45.462;9.210;2023-05-27T09:34:58;6.20;;;5.60;;
40256;SDS011;25977;45.462;9.210;2023-05-27T09:37:29;6.20;;;5.30;;
40256;SDS011;25977;45.462;9.210;2023-05-27T09:39:59;6.88;;;5.35;;
40256;SDS011;25977;45.462;9.210;2023-05-27T09:42:45;7.10;;;5.47;;
40256;SDS011;25977;45.462;9.210;2023-05-27T09:45:13;12.05;;;5.38;;
40256;SDS011;25977;45.462;9.210;2023-05-27T09:47:40;6.38;;;5.78;;
40256;SDS011;25977;45.462;9.210;2023-05-27T09:50:08;12.68;;;6.05;;
40256;SDS011;25977;45.462;9.210;2023-05-27T09:52:37;5.70;;;5.15;;
40256;SDS011;25977;45.462;9.210;2023-05-27T09:55:07;6.03;;;5.35;;
40256;SDS011;25977;45.462;9.210;2023-05-27T09:57:34;6.63;;;5.93;;
40256;SDS011;25977;45.462;9.210;2023-05-27T10:00:02;6.80;;;6.20;;
40256;SDS011;25977;45.462;9.210;2023-05-27T10:02:40;6.95;;;5.93;;
40256;SDS011;25977;45.462;9.210;2023-05-27T10:05:14;7.28;;;6.57;;
40256;SDS011;25977;45.462;9.210;2023-05-27T10:07:42;7.00;;;5.43;;
40256;SDS011;25977;45.462;9.210;2023-05-27T10:10:10;9.15;;;6.25;;
40256;SDS011;25977;45.462;9.210;2023-05-27T10:12:37;8.38;;;6.18;;
40256;SDS011;25977;45.462;9.210;2023-05-27T10:15:04;8.95;;;5.88;;
40256;SDS011;25977;45.462;9.210;2023-05-27T10:17:46;15.45;;;5.97;;
40256;SDS011;25977;45.462;9.210;2023-05-27T10:22:50;9.43;;;5.25;;
40256;SDS011;25977;45.462;9.210;2023-05-27T10:25:16;5.72;;;5.15;;
40256;SDS011;25977;45.462;9.210;2023-05-27T10:27:45;7.00;;;5.97;;
40256;SDS011;25977;45.462;9.210;2023-05-27T10:30:14;9.25;;;6.53;;
40256;SDS011;25977;45.462;9.210;2023-05-27T10:32:44;9.50;;;6.25;;
40256;SDS011;25977;45.462;9.210;2023-05-27T10:35:14;7.80;;;6.57;;
40256;SDS011;25977;45.462;9.210;2023-05-27T10:37:41;7.43;;;6.35;;
40256;SDS011;25977;45.462;9.210;2023-05-27T10:40:07;8.00;;;6.82;;
40256;SDS011;25977;45.462;9.210;2023-05-27T10:42:34;9.38;;;7.00;;
40256;SDS011;25977;45.462;9.210;2023-05-27T10:45:05;6.75;;;6.10;;
40256;SDS011;25977;45.462;9.210;2023-05-27T10:47:34;6.93;;;6.23;;
40256;SDS011;25977;45.462;9.210;2023-05-27T10:50:13;8.23;;;7.47;;
40256;SDS011;25977;45.462;9.210;2023-05-27T10:52:39;7.88;;;6.85;;
40256;SDS011;25977;45.462;9.210;2023-05-27T10:55:06;6.85;;;6.25;;
40256;SDS011;25977;45.462;9.210;2023-05-27T10:57:33;7.28;;;6.43;;
40256;SDS011;25977;45.462;9.210;2023-05-27T11:00:04;9.27;;;6.78;;
40256;SDS011;25977;45.462;9.210;2023-05-27T11:02:37;8.48;;;6.65;;
40256;SDS011;25977;45.462;9.210;2023-05-27T11:05:10;6.32;;;5.78;;
40256;SDS011;25977;45.462;9.210;2023-05-27T11:07:39;9.02;;;7.35;;
40256;SDS011;25977;45.462;9.210;2023-05-27T11:10:05;7.35;;;6.65;;
40256;SDS011;25977;45.462;9.210;2023-05-27T11:12:32;11.65;;;7.55;;
40256;SDS011;25977;45.462;9.210;2023-05-27T11:14:58;7.65;;;6.85;;
40256;SDS011;25977;45.462;9.210;2023-05-27T11:17:23;6.97;;;6.28;;
40256;SDS011;25977;45.462;9.210;2023-05-27T11:19:53;10.18;;;7.47;;
40256;SDS011;25977;45.462;9.210;2023-05-27T11:22:20;8.40;;;6.30;;
40256;SDS011;25977;45.462;9.210;2023-05-27T11:24:55;5.95;;;5.45;;
40256;SDS011;25977;45.462;9.210;2023-05-27T11:27:22;7.63;;;6.82;;
40256;SDS011;25977;45.462;9.210;2023-05-27T11:29:49;8.00;;;6.32;;
40256;SDS011;25977;45.462;9.210;2023-05-27T11:32:18;9.00;;;7.03;;
40256;SDS011;25977;45.462;9.210;2023-05-27T11:34:45;7.30;;;5.90;;
40256;SDS011;25977;45.462;9.210;2023-05-27T11:37:11;7.88;;;7.03;;
40256;SDS011;25977;45.462;9.210;2023-05-27T11:39:37;6.47;;;5.97;;
40256;SDS011;25977;45.462;9.210;2023-05-27T11:42:06;6.95;;;5.85;;
40256;SDS011;25977;45.462;9.210;2023-05-27T11:44:33;7.30;;;6.38;;
40256;SDS011;25977;45.462;9.210;2023-05-27T11:46:59;5.85;;;5.32;;
40256;SDS011;25977;45.462;9.210;2023-05-27T11:49:26;7.00;;;6.30;;
40256;SDS011;25977;45.462;9.210;2023-05-27T11:51:54;7.03;;;6.45;;
40256;SDS011;25977;45.462;9.210;2023-05-27T11:54:28;6.45;;;5.93;;
40256;SDS011;25977;45.462;9.210;2023-05-27T11:56:56;6.68;;;6.00;;
40256;SDS011;25977;45.462;9.210;2023-05-27T11:59:22;7.93;;;7.13;;
40256;SDS011;25977;45.462;9.210;2023-05-27T12:01:48;11.45;;;6.55;;
40256;SDS011;25977;45.462;9.210;2023-05-27T12:04:15;8.10;;;6.53;;
40256;SDS011;25977;45.462;9.210;2023-05-27T12:06:41;6.55;;;5.95;;
40256;SDS011;25977;45.462;9.210;2023-05-27T12:09:08;6.68;;;6.00;;
40256;SDS011;25977;45.462;9.210;2023-05-27T12:11:34;6.78;;;4.88;;
40256;SDS011;25977;45.462;9.210;2023-05-27T12:14:00;7.38;;;6.65;;
40256;SDS011;25977;45.462;9.210;2023-05-27T12:16:26;6.85;;;5.82;;
40256;SDS011;25977;45.462;9.210;2023-05-27T12:18:52;7.25;;;5.38;;
40256;SDS011;25977;45.462;9.210;2023-05-27T12:21:18;5.57;;;5.03;;
40256;SDS011;25977;45.462;9.210;2023-05-27T12:23:47;8.93;;;6.68;;
40256;SDS011;25977;45.462;9.210;2023-05-27T12:26:13;6.07;;;5.57;;
40256;SDS011;25977;45.462;9.210;2023-05-27T12:28:40;5.90;;;4.43;;
40256;SDS011;25977;45.462;9.210;2023-05-27T12:31:06;7.50;;;5.15;;
40256;SDS011;25977;45.462;9.210;2023-05-27T12:33:32;6.68;;;4.55;;
40256;SDS011;25977;45.462;9.210;2023-05-27T12:35:59;5.38;;;4.88;;
40256;SDS011;25977;45.462;9.210;2023-05-27T12:38:25;5.20;;;4.80;;
40256;SDS011;25977;45.462;9.210;2023-05-27T12:40:51;5.90;;;4.47;;
40256;SDS011;25977;45.462;9.210;2023-05-27T12:43:17;5.75;;;4.32;;
40256;SDS011;25977;45.462;9.210;2023-05-27T12:45:44;5.30;;;4.30;;
40256;SDS011;25977;45.462;9.210;2023-05-27T12:48:13;5.82;;;4.45;;
40256;SDS011;25977;45.462;9.210;2023-05-27T12:50:38;5.97;;;4.65;;
40256;SDS011;25977;45.462;9.210;2023-05-27T12:53:04;7.50;;;4.47;;
40256;SDS011;25977;45.462;9.210;2023-05-27T12:55:30;5.53;;;3.90;;
40256;SDS011;25977;45.462;9.210;2023-05-27T12:57:56;6.78;;;5.63;;
40256;SDS011;25977;45.462;9.210;2023-05-27T13:00:22;5.05;;;4.60;;
40256;SDS011;25977;45.462;9.210;2023-05-27T13:02:48;5.93;;;5.25;;
40256;SDS011;25977;45.462;9.210;2023-05-27T13:05:14;6.70;;;4.97;;
40256;SDS011;25977;45.462;9.210;2023-05-27T13:07:40;4.43;;;4.05;;
40256;SDS011;25977;45.462;9.210;2023-05-27T13:10:18;5.07;;;4.68;;
40256;SDS011;25977;45.462;9.210;2023-05-27T13:12:46;4.78;;;4.40;;
40256;SDS011;25977;45.462;9.210;2023-05-27T13:15:12;6.28;;;4.65;;
40256;SDS011;25977;45.462;9.210;2023-05-27T13:17:38;6.13;;;5.13;;
40256;SDS011;25977;45.462;9.210;2023-05-27T13:20:04;5.93;;;4.95;;
40256;SDS011;25977;45.462;9.210;2023-05-27T13:22:30;6.47;;;4.38;;
40256;SDS011;25977;45.462;9.210;2023-05-27T13:24:55;6.05;;;4.38;;
40256;SDS011;25977;45.462;9.210;2023-05-27T13:27:21;6.25;;;5.38;;
40256;SDS011;25977;45.462;9.210;2023-05-27T13:29:47;5.65;;;5.00;;
40256;SDS011;25977;45.462;9.210;2023-05-27T13:32:12;7.80;;;4.85;;
40256;SDS011;25977;45.462;9.210;2023-05-27T13:34:38;5.30;;;4.78;;
40256;SDS011;25977;45.462;9.210;2023-05-27T13:37:04;5.05;;;4.60;;
40256;SDS011;25977;45.462;9.210;2023-05-27T13:39:30;5.13;;;4.63;;
40256;SDS011;25977;45.462;9.210;2023-05-27T13:41:55;5.60;;;4.60;;
40256;SDS011;25977;45.462;9.210;2023-05-27T13:44:21;5.80;;;5.03;;
40256;SDS011;25977;45.462;9.210;2023-05-27T13:46:48;5.13;;;4.50;;
40256;SDS011;25977;45.462;9.210;2023-05-27T13:49:13;5.78;;;5.28;;
40256;SDS011;25977;45.462;9.210;2023-05-27T13:51:45;14.88;;;5.55;;
40256;SDS011;25977;45.462;9.210;2023-05-27T13:54:11;6.47;;;5.47;;
40256;SDS011;25977;45.462;9.210;2023-05-27T13:56:37;5.75;;;5.32;;
40256;SDS011;25977;45.462;9.210;2023-05-27T13:59:03;6.80;;;5.03;;
40256;SDS011;25977;45.462;9.210;2023-05-27T14:01:30;7.20;;;5.15;;
40256;SDS011;25977;45.462;9.210;2023-05-27T14:03:57;11.23;;;5.78;;
40256;SDS011;25977;45.462;9.210;2023-05-27T14:06:24;6.88;;;5.35;;
40256;SDS011;25977;45.462;9.210;2023-05-27T14:08:50;5.75;;;5.15;;
40256;SDS011;25977;45.462;9.210;2023-05-27T14:11:17;5.85;;;5.35;;
40256;SDS011;25977;45.462;9.210;2023-05-27T14:13:43;5.30;;;4.65;;
40256;SDS011;25977;45.462;9.210;2023-05-27T14:16:08;5.55;;;5.10;;
40256;SDS011;25977;45.462;9.210;2023-05-27T14:18:34;6.40;;;5.80;;
40256;SDS011;25977;45.462;9.210;2023-05-27T14:21:00;5.70;;;5.20;;
40256;SDS011;25977;45.462;9.210;2023-05-27T14:23:26;8.25;;;5.40;;
40256;SDS011;25977;45.462;9.210;2023-05-27T14:25:52;7.47;;;5.13;;
40256;SDS011;25977;45.462;9.210;2023-05-27T14:28:17;7.72;;;5.43;;
40256;SDS011;25977;45.462;9.210;2023-05-27T14:30:43;5.25;;;4.82;;
40256;SDS011;25977;45.462;9.210;2023-05-27T14:33:09;8.68;;;5.75;;
40256;SDS011;25977;45.462;9.210;2023-05-27T14:35:38;7.28;;;5.40;;
40256;SDS011;25977;45.462;9.210;2023-05-27T14:38:05;5.85;;;5.10;;
40256;SDS011;25977;45.462;9.210;2023-05-27T14:40:31;5.18;;;4.65;;
40256;SDS011;25977;45.462;9.210;2023-05-27T14:42:58;6.45;;;5.85;;
40256;SDS011;25977;45.462;9.210;2023-05-27T14:45:24;6.70;;;4.38;;
40256;SDS011;25977;45.462;9.210;2023-05-27T14:47:51;6.38;;;5.82;;
40256;SDS011;25977;45.462;9.210;2023-05-27T14:50:20;6.53;;;5.45;;
40256;SDS011;25977;45.462;9.210;2023-05-27T14:52:48;7.82;;;6.88;;
40256;SDS011;25977;45.462;9.210;2023-05-27T14:55:14;6.18;;;5.57;;
40256;SDS011;25977;45.462;9.210;2023-05-27T14:57:40;6.63;;;5.68;;
40256;SDS011;25977;45.462;9.210;2023-05-27T15:00:06;8.02;;;5.15;;
40256;SDS011;25977;45.462;9.210;2023-05-27T15:02:33;6.93;;;5.43;;